Time;durP1;ratioP1;P1;durP2;ratioP2;P2;SDS_P1;SDS_P2;PMS_P1;PMS_P2;Temp;Humidity;BMP_temperature;BMP_pressure;BME280_temperature;BME280_humidity;BME280_pressure;Samples;Min_cycle;Max_cycle;Signal;HPM_P1;HPM_P2
2021/10/12 00:01:26;;;;;;;44.90;30.52;;;281.80;2278.40;;;;;;5033308;28;20025;-65
2021/10/12 00:03:52;;;;;;;43.08;29.67;;;281.80;2278.40;;;;;;5033279;28;20029;-65
2021/10/12 00:06:18;;;;;;;43.55;29.10;;;281.80;2278.40;;;;;;5033256;28;20100;-65
2021/10/12 00:08:44;;;;;;;36.28;26.48;;;281.80;2278.40;;;;;;5033266;28;20021;-65
2021/10/12 00:11:10;;;;;;;39.20;26.08;;;281.80;2278.40;;;;;;5015377;28;20060;-65
2021/10/12 00:13:36;;;;;;;43.10;28.42;;;281.80;2278.40;;;;;;5033165;28;20418;-65
2021/10/12 00:16:03;;;;;;;41.50;28.02;;;281.80;2278.40;;;;;;5033186;28;20084;-65
2021/10/12 00:18:28;;;;;;;36.83;25.27;;;281.80;2278.40;;;;;;5033092;28;20112;-65
2021/10/12 00:20:54;;;;;;;38.10;25.70;;;281.80;2278.40;;;;;;5033209;28;20533;-65
2021/10/12 00:23:20;;;;;;;38.42;25.65;;;281.80;2278.40;;;;;;5032971;28;20045;-66
2021/10/12 00:25:46;;;;;;;41.65;28.30;;;281.80;2278.40;;;;;;5033222;28;20022;-65
2021/10/12 00:28:12;;;;;;;43.40;29.52;;;281.80;2278.40;;;;;;5033136;28;20022;-65
2021/10/12 00:30:38;;;;;;;43.83;31.02;;;281.80;2278.40;;;;;;5033199;28;20026;-65
2021/10/12 00:33:04;;;;;;;49.90;32.58;;;281.70;2278.40;;;;;;5033162;28;20136;-65
2021/10/12 00:35:30;;;;;;;48.13;34.75;;;281.70;2278.40;;;;;;5033658;28;20022;-65
2021/10/12 00:37:56;;;;;;;54.83;36.35;;;281.80;2278.40;;;;;;5033190;28;20036;-65
2021/10/12 00:40:22;;;;;;;51.35;34.95;;;281.70;2278.40;;;;;;5035619;28;20091;-66
2021/10/12 00:42:48;;;;;;;60.75;41.25;;;281.70;2278.40;;;;;;5036899;28;20425;-65
2021/10/12 00:45:15;;;;;;;59.50;39.95;;;281.80;2278.40;;;;;;5037107;28;20025;-65
2021/10/12 00:47:58;;;;;;;59.47;38.78;;;281.70;2278.40;;;;;;5036857;28;20024;-65
2021/10/12 00:50:26;;;;;;;62.72;39.83;;;281.80;2278.40;;;;;;5036793;28;20385;-65
2021/10/12 00:52:51;;;;;;;58.30;40.85;;;281.80;2278.40;;;;;;5036751;28;20026;-65
2021/10/12 00:55:17;;;;;;;64.05;43.42;;;281.80;2278.40;;;;;;5037049;28;20429;-65
2021/10/12 00:57:43;;;;;;;60.08;41.65;;;281.80;2278.40;;;;;;5036539;28;20052;-65
2021/10/12 01:00:10;;;;;;;60.40;41.88;;;281.70;2278.40;;;;;;5036604;28;20040;-65
2021/10/12 01:02:37;;;;;;;62.28;42.20;;;281.80;2278.40;;;;;;5036518;28;20045;-65
2021/10/12 01:05:04;;;;;;;67.82;43.83;;;281.80;2278.40;;;;;;5036474;28;20032;-65
2021/10/12 01:07:30;;;;;;;60.50;42.30;;;281.80;2278.40;;;;;;5036758;28;20084;-66
2021/10/12 01:09:56;;;;;;;61.65;40.70;;;281.80;2278.40;;;;;;5036401;28;20034;-65
2021/10/12 01:12:22;;;;;;;64.85;43.20;;;281.70;2278.40;;;;;;5036345;28;20033;-65
2021/10/12 01:14:48;;;;;;;67.03;42.83;;;281.70;2278.40;;;;;;5036368;28;20025;-65
2021/10/12 01:17:14;;;;;;;64.15;43.03;;;281.70;2278.40;;;;;;5036455;28;20124;-65
2021/10/12 01:19:40;;;;;;;69.35;44.65;;;281.70;2278.40;;;;;;5036478;28;20029;-65
2021/10/12 01:22:06;;;;;;;67.90;43.50;;;281.70;2278.40;;;;;;5036735;28;20029;-66
2021/10/12 01:24:32;;;;;;;64.78;43.85;;;281.70;2278.40;;;;;;5035992;28;20041;-66
2021/10/12 01:26:58;;;;;;;68.28;45.22;;;281.80;2278.40;;;;;;5036219;28;20053;-65
2021/10/12 01:29:24;;;;;;;68.15;44.75;;;281.80;2278.40;;;;;;5036034;28;20060;-65
2021/10/12 01:31:50;;;;;;;62.00;43.00;;;281.80;2278.40;;;;;;5019100;28;20022;-65
2021/10/12 01:34:18;;;;;;;62.17;43.67;;;281.80;2278.40;;;;;;5036084;28;20052;-65
2021/10/12 01:36:45;;;;;;;63.88;43.53;;;281.80;2278.40;;;;;;5018909;28;20331;-65
2021/10/12 01:39:12;;;;;;;69.00;43.72;;;281.80;2278.40;;;;;;5035900;28;20420;-65
2021/10/12 01:41:38;;;;;;;66.85;45.63;;;281.80;2278.40;;;;;;5035804;28;20109;-65
2021/10/12 01:44:05;;;;;;;68.47;46.40;;;281.80;2278.40;;;;;;5035794;28;20034;-65
2021/10/12 01:46:31;;;;;;;70.68;46.80;;;281.70;2278.40;;;;;;5035740;28;20025;-65
2021/10/12 01:48:57;;;;;;;73.03;48.70;;;281.70;2278.40;;;;;;5035735;28;20413;-65
2021/10/12 01:51:22;;;;;;;82.82;50.92;;;281.70;2278.40;;;;;;5035373;28;20045;-65
2021/10/12 01:53:48;;;;;;;69.65;47.42;;;281.70;2278.40;;;;;;5035886;28;20049;-65
2021/10/12 01:56:14;;;;;;;74.63;48.92;;;281.70;2278.40;;;;;;5035616;28;20126;-65
2021/10/12 01:58:40;;;;;;;76.05;50.33;;;281.70;2278.40;;;;;;5035920;28;20367;-65
2021/10/12 02:01:06;;;;;;;78.47;49.58;;;281.70;2278.40;;;;;;5035310;28;20025;-65
2021/10/12 02:03:32;;;;;;;76.80;48.75;;;281.60;2278.40;;;;;;5035296;28;20128;-65
2021/10/12 02:05:58;;;;;;;72.60;48.38;;;281.70;2278.40;;;;;;5035294;28;20082;-65
2021/10/12 02:08:24;;;;;;;68.90;46.38;;;281.70;2278.40;;;;;;5017617;28;20036;-66
2021/10/12 02:10:50;;;;;;;69.78;47.75;;;281.60;2278.40;;;;;;5035336;28;20025;-65
2021/10/12 02:13:16;;;;;;;68.10;46.20;;;281.70;2278.40;;;;;;5035163;28;20025;-65
2021/10/12 02:15:42;;;;;;;64.32;45.40;;;281.70;2278.40;;;;;;5035203;28;20025;-65
2021/10/12 02:18:07;;;;;;;72.75;46.83;;;281.60;2278.40;;;;;;5035366;28;20377;-65
2021/10/12 02:20:33;;;;;;;61.85;43.53;;;281.70;2278.40;;;;;;5035132;28;20501;-65
2021/10/12 02:22:59;;;;;;;67.93;45.83;;;281.70;2278.40;;;;;;5034878;28;20404;-65
2021/10/12 02:25:25;;;;;;;63.80;45.17;;;281.70;2278.40;;;;;;5017191;28;20531;-65
2021/10/12 02:27:51;;;;;;;66.88;43.40;;;281.70;2278.40;;;;;;5035255;28;20026;-65
2021/10/12 02:30:17;;;;;;;71.25;45.70;;;281.70;2278.40;;;;;;5035002;28;20021;-65
2021/10/12 02:32:43;;;;;;;68.20;46.38;;;281.70;2278.40;;;;;;5035014;28;20075;-65
2021/10/12 02:35:09;;;;;;;66.88;45.05;;;281.70;2278.40;;;;;;5034810;28;20105;-65
2021/10/12 02:37:35;;;;;;;64.95;44.83;;;281.70;2278.40;;;;;;5034906;28;20057;-65
2021/10/12 02:40:01;;;;;;;65.28;42.83;;;281.60;2278.40;;;;;;5034916;28;20053;-65
2021/10/12 02:42:27;;;;;;;62.08;43.58;;;281.60;2278.40;;;;;;5034594;28;20509;-65
2021/10/12 02:44:52;;;;;;;65.18;43.33;;;281.60;2278.40;;;;;;5035111;28;20059;-65
2021/10/12 02:47:18;;;;;;;65.88;43.97;;;281.60;2278.40;;;;;;5035355;28;20104;-65
2021/10/12 02:49:45;;;;;;;60.30;43.22;;;281.60;2278.40;;;;;;5034425;28;20029;-65
2021/10/12 02:52:11;;;;;;;69.18;44.53;;;281.60;2278.40;;;;;;5034528;28;20057;-65
2021/10/12 02:54:37;;;;;;;57.90;41.22;;;281.60;2278.40;;;;;;5034368;28;20084;-65
2021/10/12 02:57:03;;;;;;;64.28;43.30;;;281.60;2278.40;;;;;;5034174;28;20033;-65
2021/10/12 02:59:28;;;;;;;65.63;41.97;;;281.70;2278.40;;;;;;5034642;28;20029;-65
2021/10/12 03:01:54;;;;;;;59.72;40.88;;;281.60;2278.40;;;;;;5015795;28;20036;-65
2021/10/12 03:04:21;;;;;;;55.95;39.15;;;281.60;2278.40;;;;;;5034258;28;20104;-65
2021/10/12 03:06:47;;;;;;;57.22;40.63;;;281.60;2278.40;;;;;;5034164;28;20018;-64
2021/10/12 03:09:13;;;;;;;60.58;40.85;;;256.90;2252.80;;;;;;5034493;28;20033;-64
2021/10/12 03:11:39;;;;;;;53.35;39.30;;;256.80;2252.80;;;;;;5034229;28;20027;-65
2021/10/12 03:14:05;;;;;;;58.97;41.60;;;256.90;2252.80;;;;;;5034193;28;20025;-64
2021/10/12 03:16:30;;;;;;;54.88;39.30;;;256.90;2252.80;;;;;;5033871;28;20032;-64
2021/10/12 03:18:56;;;;;;;52.08;38.00;;;256.80;2252.80;;;;;;5033977;28;20044;-66
2021/10/12 03:21:23;;;;;;;57.30;39.03;;;256.90;2252.80;;;;;;5034011;28;20036;-65
2021/10/12 03:23:49;;;;;;;53.20;38.13;;;256.90;2252.80;;;;;;5033762;28;20396;-65
2021/10/12 03:26:15;;;;;;;53.72;38.03;;;256.80;2252.80;;;;;;5033870;28;20025;-64
2021/10/12 03:28:41;;;;;;;52.97;37.47;;;256.80;2252.80;;;;;;5033740;28;20409;-65
2021/10/12 03:31:07;;;;;;;54.45;37.13;;;256.70;2252.80;;;;;;5016011;28;20029;-65
2021/10/12 03:33:32;;;;;;;52.30;37.13;;;256.80;2252.80;;;;;;5033633;28;20025;-65
2021/10/12 03:36:11;;;;;;;54.75;36.72;;;256.70;2252.80;;;;;;5033760;28;20065;-65
2021/10/12 03:38:37;;;;;;;56.83;38.20;;;256.70;2252.80;;;;;;5033603;28;20038;-65
2021/10/12 03:41:03;;;;;;;51.65;35.25;;;256.70;2252.80;;;;;;5034031;28;20025;-65
2021/10/12 03:43:29;;;;;;;53.47;38.15;;;256.70;2252.80;;;;;;5033629;28;20057;-65
2021/10/12 03:45:55;;;;;;;56.97;38.70;;;256.70;2252.80;;;;;;5033770;28;20033;-65
2021/10/12 03:48:21;;;;;;;59.70;40.28;;;256.70;2252.80;;;;;;5033565;28;20030;-65
2021/10/12 03:50:46;;;;;;;54.42;38.17;;;256.80;2252.80;;;;;;5033590;28;20432;-65
2021/10/12 03:53:12;;;;;;;57.78;40.20;;;256.70;2252.80;;;;;;5033492;28;20120;-65
2021/10/12 03:55:38;;;;;;;54.25;38.65;;;256.70;2252.80;;;;;;5033526;28;20025;-65
2021/10/12 03:58:04;;;;;;;51.30;38.15;;;256.70;2252.80;;;;;;5033400;28;20038;-65
2021/10/12 04:00:30;;;;;;;58.28;43.88;;;256.70;2252.80;;;;;;5033484;28;20035;-65
2021/10/12 04:02:56;;;;;;;55.53;39.00;;;256.70;2252.80;;;;;;5033628;28;20076;-65
2021/10/12 04:05:22;;;;;;;54.15;39.05;;;256.70;2252.80;;;;;;5033429;28;20108;-65
2021/10/12 04:07:49;;;;;;;54.92;37.53;;;256.70;2252.80;;;;;;5033379;28;20037;-65
2021/10/12 04:10:15;;;;;;;53.35;38.30;;;256.70;2252.80;;;;;;5033641;28;20021;-65
2021/10/12 04:12:40;;;;;;;59.95;39.47;;;256.70;2252.80;;;;;;5033312;28;20501;-65
2021/10/12 04:15:07;;;;;;;53.13;37.78;;;256.70;2252.80;;;;;;5037091;28;20032;-65
2021/10/12 04:17:33;;;;;;;53.10;36.25;;;256.70;2252.80;;;;;;5037383;28;20389;-65
2021/10/12 04:19:58;;;;;;;51.42;36.05;;;256.70;2252.80;;;;;;5037635;28;20025;-65
2021/10/12 04:22:24;;;;;;;50.28;35.35;;;256.70;2252.80;;;;;;5037265;28;20497;-65
2021/10/12 04:24:50;;;;;;;53.05;35.42;;;256.70;2252.80;;;;;;5037139;28;20045;-65
2021/10/12 04:27:17;;;;;;;53.25;37.90;;;256.60;2252.80;;;;;;5019407;28;20025;-65
2021/10/12 04:29:43;;;;;;;59.33;39.13;;;256.60;2252.80;;;;;;5037235;28;20112;-65
2021/10/12 04:32:10;;;;;;;52.17;37.10;;;256.60;2252.80;;;;;;5037703;28;20041;-65
2021/10/12 04:34:37;;;;;;;54.40;36.90;;;256.60;2252.80;;;;;;5037105;28;20037;-65
2021/10/12 04:37:03;;;;;;;52.05;36.08;;;256.70;2252.80;;;;;;5036942;28;20022;-65
2021/10/12 04:39:29;;;;;;;52.63;37.00;;;256.70;2252.80;;;;;;5036855;28;20053;-65
2021/10/12 04:41:58;;;;;;;56.60;39.33;;;256.70;2252.80;;;;;;5036832;28;20017;-65
2021/10/12 04:44:29;;;;;;;60.08;41.55;;;256.80;2252.80;;;;;;5036867;28;20117;-65
2021/10/12 04:46:55;;;;;;;59.10;39.22;;;256.70;2252.80;;;;;;5037550;28;20377;-65
2021/10/12 04:49:21;;;;;;;51.25;37.17;;;256.70;2252.80;;;;;;5036747;28;20026;-65
2021/10/12 04:51:47;;;;;;;61.17;42.05;;;256.70;2252.80;;;;;;5036729;28;20033;-64
2021/10/12 04:54:13;;;;;;;71.05;48.03;;;256.70;2252.80;;;;;;5036749;28;20030;-65
2021/10/12 04:56:39;;;;;;;58.30;41.42;;;256.70;2252.80;;;;;;5018837;28;20026;-65
2021/10/12 04:59:05;;;;;;;62.85;44.03;;;256.80;2252.80;;;;;;5036300;28;20029;-65
2021/10/12 05:01:31;;;;;;;62.75;41.60;;;256.70;2252.80;;;;;;5018820;28;20114;-65
2021/10/12 05:03:56;;;;;;;52.58;37.17;;;256.80;2252.80;;;;;;5035988;28;20102;-65
2021/10/12 05:06:22;;;;;;;58.35;43.58;;;256.80;2252.80;;;;;;5036481;28;20454;-65
2021/10/12 05:08:48;;;;;;;79.30;55.42;;;256.80;2252.80;;;;;;5036435;28;20029;-65
2021/10/12 05:11:14;;;;;;;66.75;48.25;;;256.70;2252.80;;;;;;5036506;28;20033;-65
2021/10/12 05:13:40;;;;;;;58.17;41.28;;;256.80;2252.80;;;;;;5036259;28;20029;-65
2021/10/12 05:16:11;;;;;;;49.72;34.90;;;256.80;2252.80;;;;;;5036524;28;20451;-65
2021/10/12 05:18:40;;;;;;;50.63;33.67;;;256.70;2252.80;;;;;;5035813;28;20041;-65
2021/10/12 05:21:06;;;;;;;49.22;35.72;;;256.70;2252.80;;;;;;5035595;28;20033;-66
2021/10/12 05:23:31;;;;;;;59.22;37.90;;;256.70;2252.80;;;;;;5035379;28;20083;-65
2021/10/12 05:25:58;;;;;;;56.75;41.13;;;256.70;2252.80;;;;;;5034778;28;20034;-65
2021/10/12 05:28:25;;;;;;;64.95;47.72;;;256.70;2252.80;;;;;;5035086;28;20112;-65
2021/10/12 05:30:51;;;;;;;67.15;49.67;;;256.70;2252.80;;;;;;5035445;28;20104;-65
2021/10/12 05:33:19;;;;;;;126.70;104.60;;;256.70;2252.80;;;;;;5035028;28;20112;-65
2021/10/12 05:35:47;;;;;;;106.07;72.07;;;256.70;2252.80;;;;;;5035438;28;20025;-65
2021/10/12 05:38:18;;;;;;;67.03;49.33;;;256.70;2252.80;;;;;;5035421;28;20045;-65
2021/10/12 05:40:44;;;;;;;49.38;37.88;;;256.80;2252.80;;;;;;5035816;28;20040;-65
2021/10/12 05:43:10;;;;;;;49.97;37.72;;;256.80;2252.80;;;;;;5035790;28;20034;-65
2021/10/12 05:45:36;;;;;;;47.55;34.15;;;256.80;2252.80;;;;;;5035619;28;20036;-66
2021/10/12 05:48:07;;;;;;;48.90;35.45;;;256.80;2252.80;;;;;;5035700;28;20108;-65
2021/10/12 05:50:33;;;;;;;50.33;35.42;;;256.80;2252.80;;;;;;5035918;28;20026;-65
2021/10/12 05:58:14;;;;;;;37.92;27.23;;;256.80;2252.80;;;;;;5035481;28;20162;-65
2021/10/12 06:00:40;;;;;;;34.13;25.60;;;256.70;2252.80;;;;;;5035493;28;20017;-66
2021/10/12 06:03:06;;;;;;;37.67;27.02;;;256.70;2252.80;;;;;;5035368;28;20052;-66
2021/10/12 06:05:34;;;;;;;39.63;25.75;;;256.70;2252.80;;;;;;5017607;28;20026;-65
2021/10/12 06:07:59;;;;;;;37.22;25.90;;;256.80;2252.80;;;;;;5035325;28;20120;-66
2021/10/12 06:10:25;;;;;;;35.85;25.08;;;256.80;2252.80;;;;;;5035267;28;20121;-66
2021/10/12 06:12:51;;;;;;;38.70;27.00;;;256.80;2252.80;;;;;;5035180;28;20021;-66
2021/10/12 06:15:17;;;;;;;37.45;26.95;;;256.80;2252.80;;;;;;5035141;28;20025;-66
2021/10/12 06:17:43;;;;;;;32.25;24.67;;;256.80;2252.80;;;;;;5035023;28;20035;-66
2021/10/12 06:20:09;;;;;;;35.42;25.50;;;256.80;2252.80;;;;;;5035027;28;20022;-66
2021/10/12 06:22:35;;;;;;;33.70;24.38;;;256.90;2252.80;;;;;;5034827;28;20481;-66
2021/10/12 06:25:01;;;;;;;38.22;27.00;;;256.90;2252.80;;;;;;5034935;28;20100;-66
2021/10/12 06:27:27;;;;;;;36.17;25.70;;;281.60;2278.40;;;;;;5034878;28;20029;-66
2021/10/12 06:29:52;;;;;;;47.28;30.38;;;281.60;2278.40;;;;;;5034840;28;20032;-65
2021/10/12 06:32:18;;;;;;;39.83;28.23;;;281.60;2278.40;;;;;;5034739;28;20442;-65
2021/10/12 06:34:44;;;;;;;46.70;32.45;;;281.60;2278.40;;;;;;5016996;28;20026;-64
2021/10/12 06:37:10;;;;;;;43.25;29.23;;;281.60;2278.40;;;;;;5033552;28;20034;-64
2021/10/12 06:39:36;;;;;;;42.00;29.40;;;281.60;2278.40;;;;;;5034669;28;20425;-65
2021/10/12 06:42:02;;;;;;;38.92;25.13;;;256.90;2252.80;;;;;;5034566;28;20025;-65
2021/10/12 06:44:28;;;;;;;36.78;25.73;;;256.90;2252.80;;;;;;5034537;28;20505;-64
2021/10/12 06:46:53;;;;;;;35.88;25.23;;;256.90;2252.80;;;;;;5034642;28;20033;-64
2021/10/12 06:49:19;;;;;;;41.75;25.88;;;256.90;2252.80;;;;;;5034451;28;20026;-63
2021/10/12 06:51:45;;;;;;;38.25;26.38;;;256.90;2252.80;;;;;;5034401;28;20465;-62
2021/10/12 06:54:11;;;;;;;36.20;26.58;;;256.80;2252.80;;;;;;5034248;28;20033;-62
2021/10/12 06:56:37;;;;;;;31.25;23.27;;;256.80;2252.80;;;;;;5016512;28;20106;-64
2021/10/12 06:59:02;;;;;;;37.45;28.55;;;256.80;2252.80;;;;;;5031864;28;20029;-62
2021/10/12 07:01:28;;;;;;;33.80;24.67;;;256.80;2252.80;;;;;;5035252;28;20378;-63
2021/10/12 07:03:54;;;;;;;37.83;27.33;;;256.80;2252.80;;;;;;5034886;28;20026;-64
2021/10/12 07:06:20;;;;;;;40.10;27.52;;;256.70;2252.80;;;;;;5034006;28;20021;-63
2021/10/12 07:08:46;;;;;;;34.15;24.67;;;256.80;2252.80;;;;;;5033933;28;20100;-63
2021/10/12 07:11:11;;;;;;;38.25;26.30;;;256.80;2252.80;;;;;;5033923;28;20101;-63
2021/10/12 07:13:37;;;;;;;42.45;28.00;;;256.80;2252.80;;;;;;5033787;28;20401;-64
2021/10/12 07:16:03;;;;;;;38.17;29.15;;;281.60;2278.40;;;;;;5033871;28;20032;-66
2021/10/12 07:18:29;;;;;;;38.00;28.30;;;281.60;2278.40;;;;;;5033729;28;20112;-66
2021/10/12 07:20:55;;;;;;;35.65;24.85;;;281.70;2278.40;;;;;;5034088;28;20097;-66
2021/10/12 07:23:21;;;;;;;34.97;25.75;;;281.70;2278.40;;;;;;5015686;28;20390;-66
2021/10/12 07:25:50;;;;;;;37.65;27.15;;;281.70;2278.40;;;;;;5033727;28;20026;-66
2021/10/12 07:28:16;;;;;;;42.17;28.20;;;281.80;2278.40;;;;;;5033496;28;20025;-66
2021/10/12 07:30:42;;;;;;;34.58;24.05;;;281.80;2278.40;;;;;;5033674;28;20413;-66
2021/10/12 07:33:08;;;;;;;33.83;23.88;;;281.90;2278.40;;;;;;5033461;28;20529;-66
2021/10/12 07:35:34;;;;;;;36.13;24.98;;;281.90;2278.40;;;;;;5033563;28;20025;-65
2021/10/12 07:38:01;;;;;;;35.40;23.73;;;281.90;2278.40;;;;;;5033541;28;20044;-66
2021/10/12 07:40:27;;;;;;;34.22;22.75;;;281.90;2278.40;;;;;;5033385;28;20036;-66
2021/10/12 07:42:53;;;;;;;41.30;25.75;;;281.90;2278.40;;;;;;5033447;28;20022;-66
2021/10/12 07:45:19;;;;;;;35.10;26.45;;;282.00;2278.40;;;;;;5033328;28;20025;-66
2021/10/12 07:47:45;;;;;;;36.90;24.88;;;281.90;2278.40;;;;;;5009027;28;20030;-65
2021/10/12 07:50:11;;;;;;;47.58;26.35;;;282.00;2278.40;;;;;;5024985;28;20053;-63
2021/10/12 07:52:37;;;;;;;34.95;24.75;;;282.10;2278.40;;;;;;5019430;28;20404;-62
2021/10/12 07:57:33;;;;;;;35.28;24.65;;;282.10;2278.40;;;;;;5029481;28;20030;-63
2021/10/12 08:00:00;;;;;;;31.83;23.35;;;282.10;2278.40;;;;;;5031247;28;20049;-63
2021/10/12 08:02:26;;;;;;;52.90;34.22;;;282.10;2278.40;;;;;;5031686;28;20038;-65
2021/10/12 08:04:51;;;;;;;41.63;29.30;;;282.20;2278.40;;;;;;5031506;28;20028;-66
2021/10/12 08:07:17;;;;;;;38.85;27.25;;;282.20;2278.40;;;;;;5014171;28;20041;-66
2021/10/12 08:09:43;;;;;;;40.80;28.23;;;282.30;2278.40;;;;;;5031583;28;20025;-65
2021/10/12 08:12:09;;;;;;;40.78;29.75;;;282.30;2278.40;;;;;;5031632;28;20049;-65
2021/10/12 08:14:42;;;;;;;40.85;32.30;;;282.40;2278.40;;;;;;5031445;28;20046;-66
2021/10/12 08:17:07;;;;;;;155.67;139.63;;;307.20;2304.00;;;;;;5029076;28;20025;-66
2021/10/12 08:19:33;;;;;;;48.15;39.35;;;307.40;2304.00;;;;;;5031668;28;20032;-66
2021/10/12 08:22:00;;;;;;;40.00;26.35;;;307.50;2304.00;;;;;;5031620;28;20025;-65
2021/10/12 08:24:26;;;;;;;39.50;31.92;;;307.80;2304.00;;;;;;5013489;28;20426;-66
2021/10/12 08:26:52;;;;;;;35.33;28.52;;;307.80;2304.00;;;;;;5031675;28;20036;-65
2021/10/12 08:29:18;;;;;;;37.90;27.95;;;307.70;2304.00;;;;;;5031532;28;20393;-65
2021/10/12 08:31:44;;;;;;;44.78;31.45;;;307.80;2304.00;;;;;;5031360;28;20092;-65
2021/10/12 08:34:10;;;;;;;39.88;27.20;;;307.70;2304.00;;;;;;5030797;28;20037;-66
2021/10/12 08:36:38;;;;;;;39.28;27.58;;;307.70;2304.00;;;;;;5031567;28;20424;-65
2021/10/12 08:39:07;;;;;;;39.50;27.85;;;307.50;2304.00;;;;;;5031227;28;20395;-65
2021/10/12 08:41:37;;;;;;;43.53;29.02;;;307.60;2304.00;;;;;;5031275;28;20013;-65
2021/10/12 08:44:03;;;;;;;48.35;31.85;;;307.70;2304.00;;;;;;5031320;28;20049;-65
2021/10/12 08:46:30;;;;;;;39.10;28.05;;;307.80;2304.00;;;;;;5031305;28;20014;-64
2021/10/12 08:48:57;;;;;;;38.10;26.08;;;333.20;2329.60;;;;;;5031508;28;20056;-64
2021/10/12 08:51:23;;;;;;;189.30;121.93;;;358.80;2227.20;;;;;;5031485;28;20025;-66
2021/10/12 08:53:49;;;;;;;630.63;389.67;;;384.40;2124.80;;;;;;5031505;28;20025;-65
2021/10/12 08:56:15;;;;;;;1553.82;735.70;;;384.50;2073.60;;;;;;5013430;28;20026;-65
2021/10/12 08:58:41;;;;;;;1340.00;616.95;;;384.40;2099.20;;;;;;5031116;28;20033;-66
2021/10/12 09:01:13;;;;;;;83.40;44.00;;;384.40;2022.40;;;;;;5033006;28;20026;-65
2021/10/12 09:04:02;;;;;;;81.72;51.05;;;384.40;2048.00;;;;;;5035160;28;20021;-66
2021/10/12 09:06:30;;;;;;;52.65;34.33;;;384.50;2022.40;;;;;;5034450;28;20017;-65
2021/10/12 09:09:06;;;;;;;495.88;411.17;;;384.10;2048.00;;;;;;5034773;28;20044;-65
2021/10/12 09:11:35;;;;;;;106.43;91.25;;;359.20;2124.80;;;;;;5032727;28;20060;-65
2021/10/12 09:14:04;;;;;;;71.00;55.30;;;359.00;2150.40;;;;;;5034955;28;20044;-64
2021/10/12 09:16:41;;;;;;;189.32;157.20;;;358.90;2150.40;;;;;;5034570;28;20025;-64
2021/10/12 09:19:12;;;;;;;254.95;226.77;;;358.90;2150.40;;;;;;5034530;28;20499;-64
2021/10/12 09:21:44;;;;;;;76.18;53.70;;;358.90;2176.00;;;;;;5034619;28;20045;-64
2021/10/12 09:24:13;;;;;;;223.15;186.98;;;358.90;2176.00;;;;;;5032170;28;20045;-64
2021/10/12 09:26:42;;;;;;;44.08;34.67;;;358.60;2227.20;;;;;;5034528;28;20060;-62
2021/10/12 09:29:22;;;;;;;49.47;33.75;;;358.40;2227.20;;;;;;5031887;28;20482;-65
2021/10/12 09:31:48;;;;;;;97.13;74.10;;;333.60;2252.80;;;;;;5032486;28;20029;-64
2021/10/12 09:34:15;;;;;;;169.20;131.13;;;333.50;2278.40;;;;;;5035069;28;20034;-59
2021/10/12 09:36:43;;;;;;;78.28;60.90;;;333.60;2304.00;;;;;;5035629;28;20549;-65
2021/10/12 09:39:14;;;;;;;56.05;41.63;;;358.40;2252.80;;;;;;5035659;28;20035;-65
2021/10/12 09:41:42;;;;;;;43.08;31.50;;;358.40;2252.80;;;;;;5035824;28;20021;-65
2021/10/12 09:44:14;;;;;;;45.97;31.02;;;358.60;2252.80;;;;;;5035689;28;20072;-65
2021/10/12 09:46:45;;;;;;;44.35;32.88;;;358.90;2227.20;;;;;;5035324;28;20031;-64
2021/10/12 09:49:22;;;;;;;45.20;34.83;;;359.00;2201.60;;;;;;5035835;28;20032;-65
2021/10/12 09:52:01;;;;;;;45.28;33.20;;;359.10;2201.60;;;;;;5035546;28;20371;-64
2021/10/12 09:54:33;;;;;;;49.60;33.45;;;358.90;2176.00;;;;;;5035439;28;20454;-66
2021/10/12 09:57:01;;;;;;;43.05;34.10;;;358.80;2227.20;;;;;;5035129;28;20045;-65
2021/10/12 09:59:27;;;;;;;44.92;33.22;;;358.60;2252.80;;;;;;5035300;28;20504;-65
2021/10/12 10:01:54;;;;;;;48.90;33.33;;;358.50;2278.40;;;;;;5035406;28;20018;-64
2021/10/12 10:04:22;;;;;;;47.40;36.55;;;358.50;2252.80;;;;;;5035271;28;20029;-65
2021/10/12 10:06:49;;;;;;;51.22;36.85;;;358.40;2304.00;;;;;;5034978;28;20028;-64
2021/10/12 10:09:19;;;;;;;46.38;32.40;;;358.40;2304.00;;;;;;5035151;28;20021;-64
2021/10/12 10:11:46;;;;;;;44.97;32.10;;;358.40;2304.00;;;;;;5034112;28;20072;-65
2021/10/12 10:14:13;;;;;;;42.90;32.85;;;358.40;2304.00;;;;;;5033485;28;20017;-65
2021/10/12 10:16:42;;;;;;;42.60;32.45;;;358.60;2278.40;;;;;;5016627;28;20017;-65
2021/10/12 10:19:35;;;;;;;43.20;32.35;;;358.70;2278.40;;;;;;5030794;28;20045;-64
2021/10/12 10:22:02;;;;;;;90.18;59.55;;;358.70;2278.40;;;;;;5013178;28;20153;-64
2021/10/12 10:24:37;;;;;;;54.45;38.40;;;358.70;2278.40;;;;;;5033273;28;20053;-65
2021/10/12 10:27:04;;;;;;;40.03;28.95;;;358.70;2304.00;;;;;;5033271;28;20021;-65
2021/10/12 10:29:36;;;;;;;38.97;27.02;;;358.70;2252.80;;;;;;5033543;28;20029;-64
2021/10/12 10:32:16;;;;;;;31.67;24.17;;;358.70;2278.40;;;;;;5034429;28;20029;-64
2021/10/12 10:34:44;;;;;;;41.60;31.50;;;358.70;2252.80;;;;;;5030721;28;20013;-65
2021/10/12 10:37:16;;;;;;;36.03;26.58;;;358.70;2252.80;;;;;;5033045;28;20024;-65
2021/10/12 10:39:53;;;;;;;34.25;24.95;;;358.80;2278.40;;;;;;5033386;28;20036;-66
2021/10/12 10:42:28;;;;;;;30.30;23.00;;;358.90;2252.80;;;;;;5033395;28;20101;-64
2021/10/12 10:45:02;;;;;;;34.45;24.70;;;358.90;2227.20;;;;;;5034468;28;20056;-63
2021/10/12 10:47:47;;;;;;;40.22;27.70;;;358.90;2201.60;;;;;;5034150;28;20025;-64
2021/10/12 10:50:28;;;;;;;31.52;24.13;;;358.90;2227.20;;;;;;5016545;28;20021;-64
2021/10/12 10:53:02;;;;;;;32.30;21.58;;;358.90;2227.20;;;;;;5034436;28;20026;-64
2021/10/12 10:55:33;;;;;;;31.13;22.27;;;359.00;2201.60;;;;;;5034234;28;20477;-64
2021/10/12 10:58:18;;;;;;;29.38;22.08;;;359.10;2201.60;;;;;;5033834;28;20087;-64
2021/10/12 11:00:47;;;;;;;27.00;21.55;;;359.30;2227.20;;;;;;5034244;28;20359;-63
2021/10/12 11:03:25;;;;;;;27.40;19.35;;;359.30;2176.00;;;;;;5034182;28;20060;-64
2021/10/12 11:05:52;;;;;;;30.40;20.50;;;359.20;2201.60;;;;;;5033761;28;20064;-64
2021/10/12 11:08:21;;;;;;;27.67;21.73;;;359.30;2201.60;;;;;;5033878;28;20029;-64
2021/10/12 11:10:49;;;;;;;29.48;20.15;;;384.00;2176.00;;;;;;5034071;28;20101;-63
2021/10/12 11:13:32;;;;;;;24.20;17.77;;;359.30;2150.40;;;;;;5033892;28;20031;-64
2021/10/12 11:15:59;;;;;;;33.97;22.33;;;359.30;2150.40;;;;;;5034060;28;20021;-64
2021/10/12 11:18:25;;;;;;;29.65;20.90;;;384.00;2176.00;;;;;;5033562;28;20077;-63
2021/10/12 11:20:55;;;;;;;23.52;18.38;;;384.10;2176.00;;;;;;5016284;28;20056;-63
2021/10/12 11:23:39;;;;;;;23.20;17.83;;;384.00;2150.40;;;;;;5015685;28;20402;-63
2021/10/12 11:26:07;;;;;;;22.70;16.10;;;384.10;2124.80;;;;;;5016043;28;20033;-63
2021/10/12 11:28:36;;;;;;;21.52;16.33;;;384.00;2124.80;;;;;;5033462;28;20113;-63
2021/10/12 11:31:07;;;;;;;33.28;24.30;;;359.30;2124.80;;;;;;5032774;28;20043;-64
2021/10/12 11:33:33;;;;;;;34.78;24.52;;;359.10;2124.80;;;;;;5033759;28;20022;-63
2021/10/12 11:36:01;;;;;;;38.80;22.80;;;359.10;2176.00;;;;;;5033753;28;20025;-63
2021/10/12 11:38:33;;;;;;;38.08;24.85;;;359.20;2150.40;;;;;;5033344;28;20038;-64
2021/10/12 11:40:59;;;;;;;35.38;19.13;;;359.30;2150.40;;;;;;5033668;28;20033;-64
2021/10/12 11:43:32;;;;;;;23.55;16.80;;;384.00;2124.80;;;;;;5033455;28;20029;-63
2021/10/12 11:46:02;;;;;;;;;;;384.00;2124.80;;;;;;5016213;28;20384;-64
2021/10/12 11:48:36;;;;;;;27.58;16.70;;;384.00;2099.20;;;;;;5031535;28;19909;-63
2021/10/12 11:51:23;;;;;;;26.00;17.92;;;384.30;2099.20;;;;;;5033717;28;20374;-64
2021/10/12 11:53:51;;;;;;;27.25;19.10;;;359.20;2124.80;;;;;;5033416;28;20524;-62
2021/10/12 11:56:20;;;;;;;24.00;16.30;;;359.00;2124.80;;;;;;5033170;28;20531;-64
2021/10/12 11:58:47;;;;;;;20.88;15.45;;;359.00;2073.60;;;;;;5033086;28;20026;-63
2021/10/12 12:01:26;;;;;;;29.48;19.42;;;358.90;2073.60;;;;;;5033449;28;20033;-63
2021/10/12 12:03:52;;;;;;;34.80;22.70;;;358.90;2124.80;;;;;;5033164;28;20033;-62
2021/10/12 12:06:23;;;;;;;29.77;19.98;;;358.90;2099.20;;;;;;5033049;28;20417;-62
2021/10/12 12:08:51;;;;;;;24.92;19.55;;;358.80;2073.60;;;;;;5032927;28;20458;-62